<?xml version="1.0" encoding="UTF-8" standalone="no" ?>
<gpx xmlns="http://www.topografix.com/GPX/1/1" xmlns:xsi="http://www.w3.org/2001/XMLSchema-instance" xsi:schemaLocation="http://www.topografix.com/GPX/1/1 http://www.topografix.com/GPX/1/1/gpx.xsd" version="1.1" creator="VisuGPX - https://www.visugpx.com">
  <metadata>
    <name>crêtes de la pegue</name>
    <desc><![CDATA[Quand le manque de neige se fait sentir...]]></desc>
  </metadata>
  <trk>
    <name><![CDATA[crêtes de la pegue (bareges) ]]></name>
    <desc><![CDATA[<p>Heure de départ: 03/31/2019 09:27<br/>Heure d'arrivée: 03/31/2019 12:45<br/>Distance: 9,2 km (03:18)<br/>Temps déplacement: 02:15<br/>Vitesse moyenne: 2,76 km/h<br/>Vitesse moyenne mouv.: 4,06 km/h<br/>Vitesse Max.: 34,42 km/h<br/>Altitude minimale: 1554 m<br/>Altitude maximale: 2352 m<br/>Vitesse de montée: 286,9 m/h<br/>Vitesse de descente: -1452,3 m/h<br/>Gain d'altitude: 794 m<br/>Perte d'altitude: -794 m<br/>Temps de montée: 02:46<br/>Temps de descente: 00:32<br/></p><hr align="center" width="480" style="height: 2px; width: 517px"/>]]></desc>
    <trkseg>
      <trkpt lat="42.90728" lon="0.11465">
        <ele>1555.56</ele>
        <time>2019-03-31T07:27:00Z</time>
      </trkpt>
      <trkpt lat="42.90728" lon="0.1149">
        <ele>1557.44</ele>
        <time>2019-03-31T07:29:47Z</time>
      </trkpt>
      <trkpt lat="42.90724" lon="0.11514">
        <ele>1559.32</ele>
        <time>2019-03-31T07:30:16Z</time>
      </trkpt>
      <trkpt lat="42.90721" lon="0.11538">
        <ele>1560.51</ele>
        <time>2019-03-31T07:30:39Z</time>
      </trkpt>
      <trkpt lat="42.90718" lon="0.11564">
        <ele>1562.51</ele>
        <time>2019-03-31T07:31:03Z</time>
      </trkpt>
      <trkpt lat="42.90714" lon="0.11588">
        <ele>1566.98</ele>
        <time>2019-03-31T07:31:27Z</time>
      </trkpt>
      <trkpt lat="42.9072" lon="0.11612">
        <ele>1568.58</ele>
        <time>2019-03-31T07:31:48Z</time>
      </trkpt>
      <trkpt lat="42.90718" lon="0.11637">
        <ele>1573.12</ele>
        <time>2019-03-31T07:32:22Z</time>
      </trkpt>
      <trkpt lat="42.90725" lon="0.1166">
        <ele>1576.77</ele>
        <time>2019-03-31T07:32:51Z</time>
      </trkpt>
      <trkpt lat="42.90726" lon="0.11685">
        <ele>1582.03</ele>
        <time>2019-03-31T07:33:17Z</time>
      </trkpt>
      <trkpt lat="42.90726" lon="0.1171">
        <ele>1588.44</ele>
        <time>2019-03-31T07:33:49Z</time>
      </trkpt>
      <trkpt lat="42.90725" lon="0.11735">
        <ele>1589.77</ele>
        <time>2019-03-31T07:34:14Z</time>
      </trkpt>
      <trkpt lat="42.90725" lon="0.1176">
        <ele>1591.32</ele>
        <time>2019-03-31T07:34:40Z</time>
      </trkpt>
      <trkpt lat="42.90719" lon="0.11785">
        <ele>1592.39</ele>
        <time>2019-03-31T07:35:05Z</time>
      </trkpt>
      <trkpt lat="42.90714" lon="0.11809">
        <ele>1592.91</ele>
        <time>2019-03-31T07:35:27Z</time>
      </trkpt>
      <trkpt lat="42.90711" lon="0.11835">
        <ele>1593.61</ele>
        <time>2019-03-31T07:35:46Z</time>
      </trkpt>
      <trkpt lat="42.90708" lon="0.1186">
        <ele>1594.39</ele>
        <time>2019-03-31T07:36:07Z</time>
      </trkpt>
      <trkpt lat="42.90707" lon="0.11885">
        <ele>1594.92</ele>
        <time>2019-03-31T07:36:28Z</time>
      </trkpt>
      <trkpt lat="42.90711" lon="0.11909">
        <ele>1594.06</ele>
        <time>2019-03-31T07:36:47Z</time>
      </trkpt>
      <trkpt lat="42.90703" lon="0.11932">
        <ele>1595.13</ele>
        <time>2019-03-31T07:37:13Z</time>
      </trkpt>
      <trkpt lat="42.90703" lon="0.11958">
        <ele>1596.66</ele>
        <time>2019-03-31T07:37:37Z</time>
      </trkpt>
      <trkpt lat="42.90701" lon="0.11982">
        <ele>1594.83</ele>
        <time>2019-03-31T07:38:00Z</time>
      </trkpt>
      <trkpt lat="42.90695" lon="0.12006">
        <ele>1591.21</ele>
        <time>2019-03-31T07:38:22Z</time>
      </trkpt>
      <trkpt lat="42.90691" lon="0.1203">
        <ele>1588.77</ele>
        <time>2019-03-31T07:38:42Z</time>
      </trkpt>
      <trkpt lat="42.90694" lon="0.12055">
        <ele>1587.4</ele>
        <time>2019-03-31T07:39:05Z</time>
      </trkpt>
      <trkpt lat="42.90691" lon="0.1208">
        <ele>1587.82</ele>
        <time>2019-03-31T07:39:23Z</time>
      </trkpt>
      <trkpt lat="42.90687" lon="0.12105">
        <ele>1589</ele>
        <time>2019-03-31T07:39:48Z</time>
      </trkpt>
      <trkpt lat="42.90684" lon="0.12129">
        <ele>1585.19</ele>
        <time>2019-03-31T07:40:09Z</time>
      </trkpt>
      <trkpt lat="42.90682" lon="0.12154">
        <ele>1586.09</ele>
        <time>2019-03-31T07:40:30Z</time>
      </trkpt>
      <trkpt lat="42.90685" lon="0.1218">
        <ele>1585.52</ele>
        <time>2019-03-31T07:40:46Z</time>
      </trkpt>
      <trkpt lat="42.90681" lon="0.12203">
        <ele>1589.89</ele>
        <time>2019-03-31T07:41:09Z</time>
      </trkpt>
      <trkpt lat="42.90686" lon="0.12228">
        <ele>1597</ele>
        <time>2019-03-31T07:41:30Z</time>
      </trkpt>
      <trkpt lat="42.90693" lon="0.12251">
        <ele>1608.53</ele>
        <time>2019-03-31T07:41:58Z</time>
      </trkpt>
      <trkpt lat="42.90704" lon="0.12271">
        <ele>1619.75</ele>
        <time>2019-03-31T07:42:22Z</time>
      </trkpt>
      <trkpt lat="42.90702" lon="0.12295">
        <ele>1617.16</ele>
        <time>2019-03-31T07:42:42Z</time>
      </trkpt>
      <trkpt lat="42.90703" lon="0.1232">
        <ele>1615.93</ele>
        <time>2019-03-31T07:43:01Z</time>
      </trkpt>
      <trkpt lat="42.90703" lon="0.12345">
        <ele>1618.02</ele>
        <time>2019-03-31T07:43:26Z</time>
      </trkpt>
      <trkpt lat="42.90705" lon="0.1237">
        <ele>1619.88</ele>
        <time>2019-03-31T07:43:42Z</time>
      </trkpt>
      <trkpt lat="42.90708" lon="0.12394">
        <ele>1619.25</ele>
        <time>2019-03-31T07:43:59Z</time>
      </trkpt>
      <trkpt lat="42.90706" lon="0.1242">
        <ele>1620.05</ele>
        <time>2019-03-31T07:44:23Z</time>
      </trkpt>
      <trkpt lat="42.90705" lon="0.12446">
        <ele>1624.97</ele>
        <time>2019-03-31T07:44:47Z</time>
      </trkpt>
      <trkpt lat="42.90703" lon="0.12471">
        <ele>1631.23</ele>
        <time>2019-03-31T07:45:04Z</time>
      </trkpt>
      <trkpt lat="42.90705" lon="0.12496">
        <ele>1634.25</ele>
        <time>2019-03-31T07:45:22Z</time>
      </trkpt>
      <trkpt lat="42.90709" lon="0.1252">
        <ele>1635.68</ele>
        <time>2019-03-31T07:45:43Z</time>
      </trkpt>
      <trkpt lat="42.90706" lon="0.12546">
        <ele>1633.44</ele>
        <time>2019-03-31T07:46:08Z</time>
      </trkpt>
      <trkpt lat="42.90708" lon="0.12571">
        <ele>1636.8</ele>
        <time>2019-03-31T07:46:26Z</time>
      </trkpt>
      <trkpt lat="42.90707" lon="0.12595">
        <ele>1643.52</ele>
        <time>2019-03-31T07:46:46Z</time>
      </trkpt>
      <trkpt lat="42.90709" lon="0.12621">
        <ele>1645.43</ele>
        <time>2019-03-31T07:47:03Z</time>
      </trkpt>
      <trkpt lat="42.90711" lon="0.12647">
        <ele>1643.07</ele>
        <time>2019-03-31T07:47:20Z</time>
      </trkpt>
      <trkpt lat="42.90706" lon="0.1267">
        <ele>1645.37</ele>
        <time>2019-03-31T07:47:39Z</time>
      </trkpt>
      <trkpt lat="42.90707" lon="0.12696">
        <ele>1646.16</ele>
        <time>2019-03-31T07:48:01Z</time>
      </trkpt>
      <trkpt lat="42.90709" lon="0.12721">
        <ele>1645.77</ele>
        <time>2019-03-31T07:48:16Z</time>
      </trkpt>
      <trkpt lat="42.90702" lon="0.12745">
        <ele>1644.5</ele>
        <time>2019-03-31T07:48:40Z</time>
      </trkpt>
      <trkpt lat="42.90699" lon="0.12772">
        <ele>1644.65</ele>
        <time>2019-03-31T07:48:56Z</time>
      </trkpt>
      <trkpt lat="42.90696" lon="0.12796">
        <ele>1640.45</ele>
        <time>2019-03-31T07:49:21Z</time>
      </trkpt>
      <trkpt lat="42.90695" lon="0.12822">
        <ele>1644.51</ele>
        <time>2019-03-31T07:49:39Z</time>
      </trkpt>
      <trkpt lat="42.90694" lon="0.12847">
        <ele>1647.84</ele>
        <time>2019-03-31T07:50:00Z</time>
      </trkpt>
      <trkpt lat="42.90695" lon="0.12873">
        <ele>1654.71</ele>
        <time>2019-03-31T07:50:21Z</time>
      </trkpt>
      <trkpt lat="42.90696" lon="0.12899">
        <ele>1657.22</ele>
        <time>2019-03-31T07:50:37Z</time>
      </trkpt>
      <trkpt lat="42.90694" lon="0.12923">
        <ele>1660.1</ele>
        <time>2019-03-31T07:50:56Z</time>
      </trkpt>
      <trkpt lat="42.90691" lon="0.12948">
        <ele>1666.94</ele>
        <time>2019-03-31T07:51:16Z</time>
      </trkpt>
      <trkpt lat="42.9069" lon="0.12973">
        <ele>1676.24</ele>
        <time>2019-03-31T07:51:39Z</time>
      </trkpt>
      <trkpt lat="42.90686" lon="0.12997">
        <ele>1680.13</ele>
        <time>2019-03-31T07:51:58Z</time>
      </trkpt>
      <trkpt lat="42.90678" lon="0.13019">
        <ele>1683.45</ele>
        <time>2019-03-31T07:52:20Z</time>
      </trkpt>
      <trkpt lat="42.90672" lon="0.13043">
        <ele>1685.68</ele>
        <time>2019-03-31T07:52:41Z</time>
      </trkpt>
      <trkpt lat="42.90664" lon="0.13066">
        <ele>1690.65</ele>
        <time>2019-03-31T07:53:00Z</time>
      </trkpt>
      <trkpt lat="42.90658" lon="0.13089">
        <ele>1691.8</ele>
        <time>2019-03-31T07:53:17Z</time>
      </trkpt>
      <trkpt lat="42.90651" lon="0.13113">
        <ele>1691.78</ele>
        <time>2019-03-31T07:53:37Z</time>
      </trkpt>
      <trkpt lat="42.90643" lon="0.13135">
        <ele>1691.86</ele>
        <time>2019-03-31T07:53:54Z</time>
      </trkpt>
      <trkpt lat="42.90629" lon="0.13153">
        <ele>1691.09</ele>
        <time>2019-03-31T07:54:12Z</time>
      </trkpt>
      <trkpt lat="42.90614" lon="0.13167">
        <ele>1691.44</ele>
        <time>2019-03-31T07:54:32Z</time>
      </trkpt>
      <trkpt lat="42.90597" lon="0.13177">
        <ele>1692.65</ele>
        <time>2019-03-31T07:55:56Z</time>
      </trkpt>
      <trkpt lat="42.90578" lon="0.13176">
        <ele>1696.04</ele>
        <time>2019-03-31T07:56:20Z</time>
      </trkpt>
      <trkpt lat="42.90565" lon="0.13158">
        <ele>1699.34</ele>
        <time>2019-03-31T07:56:38Z</time>
      </trkpt>
      <trkpt lat="42.90559" lon="0.13135">
        <ele>1702.24</ele>
        <time>2019-03-31T07:56:55Z</time>
      </trkpt>
      <trkpt lat="42.90557" lon="0.1311">
        <ele>1706.41</ele>
        <time>2019-03-31T07:57:15Z</time>
      </trkpt>
      <trkpt lat="42.90553" lon="0.13086">
        <ele>1705.91</ele>
        <time>2019-03-31T07:57:36Z</time>
      </trkpt>
      <trkpt lat="42.90543" lon="0.13065">
        <ele>1707.48</ele>
        <time>2019-03-31T07:57:54Z</time>
      </trkpt>
      <trkpt lat="42.90531" lon="0.13046">
        <ele>1708.81</ele>
        <time>2019-03-31T07:58:16Z</time>
      </trkpt>
      <trkpt lat="42.90516" lon="0.13031">
        <ele>1710.06</ele>
        <time>2019-03-31T07:58:43Z</time>
      </trkpt>
      <trkpt lat="42.90499" lon="0.13022">
        <ele>1709.39</ele>
        <time>2019-03-31T07:59:04Z</time>
      </trkpt>
      <trkpt lat="42.90481" lon="0.13014">
        <ele>1709.99</ele>
        <time>2019-03-31T07:59:29Z</time>
      </trkpt>
      <trkpt lat="42.90466" lon="0.13">
        <ele>1710.58</ele>
        <time>2019-03-31T07:59:49Z</time>
      </trkpt>
      <trkpt lat="42.90455" lon="0.1298">
        <ele>1713.39</ele>
        <time>2019-03-31T08:00:08Z</time>
      </trkpt>
      <trkpt lat="42.90446" lon="0.12958">
        <ele>1714.13</ele>
        <time>2019-03-31T08:00:29Z</time>
      </trkpt>
      <trkpt lat="42.90441" lon="0.12934">
        <ele>1716.18</ele>
        <time>2019-03-31T08:00:49Z</time>
      </trkpt>
      <trkpt lat="42.90438" lon="0.12908">
        <ele>1720.34</ele>
        <time>2019-03-31T08:01:07Z</time>
      </trkpt>
      <trkpt lat="42.90431" lon="0.12884">
        <ele>1722.58</ele>
        <time>2019-03-31T08:01:29Z</time>
      </trkpt>
      <trkpt lat="42.90426" lon="0.12861">
        <ele>1723.21</ele>
        <time>2019-03-31T08:01:46Z</time>
      </trkpt>
      <trkpt lat="42.90423" lon="0.12835">
        <ele>1724.43</ele>
        <time>2019-03-31T08:02:09Z</time>
      </trkpt>
      <trkpt lat="42.90421" lon="0.1281">
        <ele>1725.37</ele>
        <time>2019-03-31T08:02:31Z</time>
      </trkpt>
      <trkpt lat="42.90416" lon="0.12786">
        <ele>1729.29</ele>
        <time>2019-03-31T08:02:47Z</time>
      </trkpt>
      <trkpt lat="42.90411" lon="0.12762">
        <ele>1736.33</ele>
        <time>2019-03-31T08:03:04Z</time>
      </trkpt>
      <trkpt lat="42.90398" lon="0.12744">
        <ele>1736.71</ele>
        <time>2019-03-31T08:03:44Z</time>
      </trkpt>
      <trkpt lat="42.90381" lon="0.12748">
        <ele>1738.43</ele>
        <time>2019-03-31T08:04:20Z</time>
      </trkpt>
      <trkpt lat="42.90367" lon="0.12765">
        <ele>1738.58</ele>
        <time>2019-03-31T08:04:48Z</time>
      </trkpt>
      <trkpt lat="42.9036" lon="0.12788">
        <ele>1733.31</ele>
        <time>2019-03-31T08:07:46Z</time>
      </trkpt>
      <trkpt lat="42.9036" lon="0.12814">
        <ele>1734.97</ele>
        <time>2019-03-31T08:08:06Z</time>
      </trkpt>
      <trkpt lat="42.90367" lon="0.12838">
        <ele>1738.73</ele>
        <time>2019-03-31T08:08:27Z</time>
      </trkpt>
      <trkpt lat="42.90375" lon="0.12861">
        <ele>1741.95</ele>
        <time>2019-03-31T08:08:48Z</time>
      </trkpt>
      <trkpt lat="42.90383" lon="0.12884">
        <ele>1745.63</ele>
        <time>2019-03-31T08:09:05Z</time>
      </trkpt>
      <trkpt lat="42.90381" lon="0.12909">
        <ele>1749.91</ele>
        <time>2019-03-31T08:09:30Z</time>
      </trkpt>
      <trkpt lat="42.90377" lon="0.12933">
        <ele>1751.6</ele>
        <time>2019-03-31T08:09:51Z</time>
      </trkpt>
      <trkpt lat="42.9037" lon="0.12956">
        <ele>1755.28</ele>
        <time>2019-03-31T08:10:14Z</time>
      </trkpt>
      <trkpt lat="42.90362" lon="0.12978">
        <ele>1757.77</ele>
        <time>2019-03-31T08:10:37Z</time>
      </trkpt>
      <trkpt lat="42.90354" lon="0.13001">
        <ele>1760.12</ele>
        <time>2019-03-31T08:10:56Z</time>
      </trkpt>
      <trkpt lat="42.90348" lon="0.13025">
        <ele>1761.61</ele>
        <time>2019-03-31T08:11:17Z</time>
      </trkpt>
      <trkpt lat="42.90341" lon="0.13048">
        <ele>1762.41</ele>
        <time>2019-03-31T08:11:35Z</time>
      </trkpt>
      <trkpt lat="42.90337" lon="0.13073">
        <ele>1759.84</ele>
        <time>2019-03-31T08:12:00Z</time>
      </trkpt>
      <trkpt lat="42.90337" lon="0.13098">
        <ele>1759.93</ele>
        <time>2019-03-31T08:12:20Z</time>
      </trkpt>
      <trkpt lat="42.9034" lon="0.13122">
        <ele>1762.75</ele>
        <time>2019-03-31T08:12:41Z</time>
      </trkpt>
      <trkpt lat="42.90333" lon="0.13146">
        <ele>1766.42</ele>
        <time>2019-03-31T08:13:04Z</time>
      </trkpt>
      <trkpt lat="42.90318" lon="0.13161">
        <ele>1766.42</ele>
        <time>2019-03-31T08:13:27Z</time>
      </trkpt>
      <trkpt lat="42.90304" lon="0.13177">
        <ele>1766.42</ele>
        <time>2019-03-31T08:13:46Z</time>
      </trkpt>
      <trkpt lat="42.90292" lon="0.13196">
        <ele>1768.74</ele>
        <time>2019-03-31T08:14:04Z</time>
      </trkpt>
      <trkpt lat="42.90281" lon="0.13216">
        <ele>1769.99</ele>
        <time>2019-03-31T08:14:28Z</time>
      </trkpt>
      <trkpt lat="42.90265" lon="0.1323">
        <ele>1769.88</ele>
        <time>2019-03-31T08:14:48Z</time>
      </trkpt>
      <trkpt lat="42.90247" lon="0.13233">
        <ele>1771.71</ele>
        <time>2019-03-31T08:15:10Z</time>
      </trkpt>
      <trkpt lat="42.90229" lon="0.13236">
        <ele>1772.95</ele>
        <time>2019-03-31T08:15:27Z</time>
      </trkpt>
      <trkpt lat="42.90211" lon="0.13232">
        <ele>1776.34</ele>
        <time>2019-03-31T08:15:54Z</time>
      </trkpt>
      <trkpt lat="42.90193" lon="0.13228">
        <ele>1774.3</ele>
        <time>2019-03-31T08:16:19Z</time>
      </trkpt>
      <trkpt lat="42.90176" lon="0.13219">
        <ele>1776.97</ele>
        <time>2019-03-31T08:16:45Z</time>
      </trkpt>
      <trkpt lat="42.90166" lon="0.13197">
        <ele>1781.75</ele>
        <time>2019-03-31T08:17:06Z</time>
      </trkpt>
      <trkpt lat="42.90164" lon="0.13172">
        <ele>1784.51</ele>
        <time>2019-03-31T08:17:27Z</time>
      </trkpt>
      <trkpt lat="42.90163" lon="0.13146">
        <ele>1783.11</ele>
        <time>2019-03-31T08:17:48Z</time>
      </trkpt>
      <trkpt lat="42.90159" lon="0.13119">
        <ele>1783.29</ele>
        <time>2019-03-31T08:21:06Z</time>
      </trkpt>
      <trkpt lat="42.90144" lon="0.13106">
        <ele>1786.15</ele>
        <time>2019-03-31T08:21:31Z</time>
      </trkpt>
      <trkpt lat="42.90131" lon="0.13089">
        <ele>1792.51</ele>
        <time>2019-03-31T08:22:08Z</time>
      </trkpt>
      <trkpt lat="42.90122" lon="0.13067">
        <ele>1800.55</ele>
        <time>2019-03-31T08:22:43Z</time>
      </trkpt>
      <trkpt lat="42.90116" lon="0.13043">
        <ele>1809.26</ele>
        <time>2019-03-31T08:23:19Z</time>
      </trkpt>
      <trkpt lat="42.90108" lon="0.13021">
        <ele>1812.46</ele>
        <time>2019-03-31T08:24:06Z</time>
      </trkpt>
      <trkpt lat="42.9009" lon="0.13027">
        <ele>1824.02</ele>
        <time>2019-03-31T08:25:25Z</time>
      </trkpt>
      <trkpt lat="42.90087" lon="0.13051">
        <ele>1830.16</ele>
        <time>2019-03-31T08:26:00Z</time>
      </trkpt>
      <trkpt lat="42.90077" lon="0.13072">
        <ele>1832.8</ele>
        <time>2019-03-31T08:26:29Z</time>
      </trkpt>
      <trkpt lat="42.90069" lon="0.13094">
        <ele>1834.16</ele>
        <time>2019-03-31T08:27:02Z</time>
      </trkpt>
      <trkpt lat="42.9006" lon="0.13117">
        <ele>1839.98</ele>
        <time>2019-03-31T08:27:38Z</time>
      </trkpt>
      <trkpt lat="42.90061" lon="0.13143">
        <ele>1844.21</ele>
        <time>2019-03-31T08:28:12Z</time>
      </trkpt>
      <trkpt lat="42.90043" lon="0.13139">
        <ele>1848.43</ele>
        <time>2019-03-31T08:29:53Z</time>
      </trkpt>
      <trkpt lat="42.90035" lon="0.13161">
        <ele>1858.27</ele>
        <time>2019-03-31T08:30:48Z</time>
      </trkpt>
      <trkpt lat="42.90041" lon="0.13185">
        <ele>1862.68</ele>
        <time>2019-03-31T08:31:19Z</time>
      </trkpt>
      <trkpt lat="42.90035" lon="0.13209">
        <ele>1865.58</ele>
        <time>2019-03-31T08:31:57Z</time>
      </trkpt>
      <trkpt lat="42.90024" lon="0.13189">
        <ele>1864.79</ele>
        <time>2019-03-31T08:33:12Z</time>
      </trkpt>
      <trkpt lat="42.90013" lon="0.13169">
        <ele>1869.81</ele>
        <time>2019-03-31T08:33:52Z</time>
      </trkpt>
      <trkpt lat="42.90001" lon="0.1315">
        <ele>1878.39</ele>
        <time>2019-03-31T08:34:34Z</time>
      </trkpt>
      <trkpt lat="42.89993" lon="0.13128">
        <ele>1886.15</ele>
        <time>2019-03-31T08:35:12Z</time>
      </trkpt>
      <trkpt lat="42.89986" lon="0.13105">
        <ele>1887.49</ele>
        <time>2019-03-31T08:35:57Z</time>
      </trkpt>
      <trkpt lat="42.89976" lon="0.13126">
        <ele>1894.65</ele>
        <time>2019-03-31T08:36:49Z</time>
      </trkpt>
      <trkpt lat="42.89969" lon="0.1315">
        <ele>1903.88</ele>
        <time>2019-03-31T08:37:25Z</time>
      </trkpt>
      <trkpt lat="42.89969" lon="0.13175">
        <ele>1905.39</ele>
        <time>2019-03-31T08:37:52Z</time>
      </trkpt>
      <trkpt lat="42.89959" lon="0.13196">
        <ele>1903.33</ele>
        <time>2019-03-31T08:40:16Z</time>
      </trkpt>
      <trkpt lat="42.89951" lon="0.13218">
        <ele>1903.42</ele>
        <time>2019-03-31T08:40:44Z</time>
      </trkpt>
      <trkpt lat="42.89939" lon="0.13237">
        <ele>1906.22</ele>
        <time>2019-03-31T08:41:23Z</time>
      </trkpt>
      <trkpt lat="42.89921" lon="0.13231">
        <ele>1908.05</ele>
        <time>2019-03-31T08:41:55Z</time>
      </trkpt>
      <trkpt lat="42.89912" lon="0.13254">
        <ele>1918.78</ele>
        <time>2019-03-31T08:42:35Z</time>
      </trkpt>
      <trkpt lat="42.89902" lon="0.13274">
        <ele>1923.22</ele>
        <time>2019-03-31T08:43:09Z</time>
      </trkpt>
      <trkpt lat="42.89895" lon="0.13298">
        <ele>1930.25</ele>
        <time>2019-03-31T08:43:43Z</time>
      </trkpt>
      <trkpt lat="42.89888" lon="0.1332">
        <ele>1932.52</ele>
        <time>2019-03-31T08:44:20Z</time>
      </trkpt>
      <trkpt lat="42.89877" lon="0.1334">
        <ele>1933.63</ele>
        <time>2019-03-31T08:44:54Z</time>
      </trkpt>
      <trkpt lat="42.89874" lon="0.13365">
        <ele>1935.63</ele>
        <time>2019-03-31T08:45:27Z</time>
      </trkpt>
      <trkpt lat="42.89866" lon="0.13387">
        <ele>1937.64</ele>
        <time>2019-03-31T08:46:01Z</time>
      </trkpt>
      <trkpt lat="42.89857" lon="0.13364">
        <ele>1947.47</ele>
        <time>2019-03-31T08:47:26Z</time>
      </trkpt>
      <trkpt lat="42.89842" lon="0.13352">
        <ele>1950.97</ele>
        <time>2019-03-31T08:48:04Z</time>
      </trkpt>
      <trkpt lat="42.89826" lon="0.1334">
        <ele>1952.95</ele>
        <time>2019-03-31T08:48:44Z</time>
      </trkpt>
      <trkpt lat="42.89809" lon="0.1335">
        <ele>1960.2</ele>
        <time>2019-03-31T08:49:51Z</time>
      </trkpt>
      <trkpt lat="42.89791" lon="0.13346">
        <ele>1960.92</ele>
        <time>2019-03-31T08:50:31Z</time>
      </trkpt>
      <trkpt lat="42.89784" lon="0.13369">
        <ele>1964.67</ele>
        <time>2019-03-31T08:52:00Z</time>
      </trkpt>
      <trkpt lat="42.89786" lon="0.13394">
        <ele>1973.35</ele>
        <time>2019-03-31T08:52:38Z</time>
      </trkpt>
      <trkpt lat="42.89788" lon="0.13421">
        <ele>1978.29</ele>
        <time>2019-03-31T08:53:27Z</time>
      </trkpt>
      <trkpt lat="42.89769" lon="0.13424">
        <ele>1985.01</ele>
        <time>2019-03-31T08:54:07Z</time>
      </trkpt>
      <trkpt lat="42.89755" lon="0.13409">
        <ele>1993.79</ele>
        <time>2019-03-31T08:54:42Z</time>
      </trkpt>
      <trkpt lat="42.8974" lon="0.13396">
        <ele>1998.73</ele>
        <time>2019-03-31T08:55:26Z</time>
      </trkpt>
      <trkpt lat="42.89727" lon="0.13414">
        <ele>2002.48</ele>
        <time>2019-03-31T08:56:00Z</time>
      </trkpt>
      <trkpt lat="42.89711" lon="0.13425">
        <ele>2005.97</ele>
        <time>2019-03-31T08:56:33Z</time>
      </trkpt>
      <trkpt lat="42.89693" lon="0.13429">
        <ele>2010.19</ele>
        <time>2019-03-31T08:57:07Z</time>
      </trkpt>
      <trkpt lat="42.89675" lon="0.13435">
        <ele>2013.78</ele>
        <time>2019-03-31T08:57:38Z</time>
      </trkpt>
      <trkpt lat="42.89657" lon="0.13435">
        <ele>2019.79</ele>
        <time>2019-03-31T08:58:28Z</time>
      </trkpt>
      <trkpt lat="42.89638" lon="0.13434">
        <ele>2018.72</ele>
        <time>2019-03-31T09:09:17Z</time>
      </trkpt>
      <trkpt lat="42.8962" lon="0.13429">
        <ele>2020.98</ele>
        <time>2019-03-31T09:09:40Z</time>
      </trkpt>
      <trkpt lat="42.89601" lon="0.13431">
        <ele>2025.57</ele>
        <time>2019-03-31T09:10:11Z</time>
      </trkpt>
      <trkpt lat="42.89584" lon="0.13426">
        <ele>2029.31</ele>
        <time>2019-03-31T09:10:38Z</time>
      </trkpt>
      <trkpt lat="42.89567" lon="0.13417">
        <ele>2034.17</ele>
        <time>2019-03-31T09:11:20Z</time>
      </trkpt>
      <trkpt lat="42.89551" lon="0.13405">
        <ele>2035.36</ele>
        <time>2019-03-31T09:11:50Z</time>
      </trkpt>
      <trkpt lat="42.89533" lon="0.134">
        <ele>2040.2</ele>
        <time>2019-03-31T09:12:27Z</time>
      </trkpt>
      <trkpt lat="42.89516" lon="0.13393">
        <ele>2044.07</ele>
        <time>2019-03-31T09:13:03Z</time>
      </trkpt>
      <trkpt lat="42.89497" lon="0.1339">
        <ele>2049.04</ele>
        <time>2019-03-31T09:13:40Z</time>
      </trkpt>
      <trkpt lat="42.89479" lon="0.13384">
        <ele>2051.5</ele>
        <time>2019-03-31T09:14:13Z</time>
      </trkpt>
      <trkpt lat="42.89463" lon="0.13372">
        <ele>2056.38</ele>
        <time>2019-03-31T09:14:48Z</time>
      </trkpt>
      <trkpt lat="42.89444" lon="0.13371">
        <ele>2061.34</ele>
        <time>2019-03-31T09:15:24Z</time>
      </trkpt>
      <trkpt lat="42.89433" lon="0.1335">
        <ele>2065.61</ele>
        <time>2019-03-31T09:15:55Z</time>
      </trkpt>
      <trkpt lat="42.89431" lon="0.13325">
        <ele>2067.9</ele>
        <time>2019-03-31T09:16:37Z</time>
      </trkpt>
      <trkpt lat="42.89429" lon="0.133">
        <ele>2074.01</ele>
        <time>2019-03-31T09:17:15Z</time>
      </trkpt>
      <trkpt lat="42.89414" lon="0.13314">
        <ele>2076.36</ele>
        <time>2019-03-31T09:17:50Z</time>
      </trkpt>
      <trkpt lat="42.89396" lon="0.13314">
        <ele>2084.33</ele>
        <time>2019-03-31T09:18:47Z</time>
      </trkpt>
      <trkpt lat="42.89392" lon="0.1329">
        <ele>2088.51</ele>
        <time>2019-03-31T09:19:24Z</time>
      </trkpt>
      <trkpt lat="42.89389" lon="0.13265">
        <ele>2090.84</ele>
        <time>2019-03-31T09:20:00Z</time>
      </trkpt>
      <trkpt lat="42.89372" lon="0.13274">
        <ele>2101.45</ele>
        <time>2019-03-31T09:20:44Z</time>
      </trkpt>
      <trkpt lat="42.89358" lon="0.1329">
        <ele>2111.77</ele>
        <time>2019-03-31T09:21:28Z</time>
      </trkpt>
      <trkpt lat="42.8934" lon="0.13295">
        <ele>2116.4</ele>
        <time>2019-03-31T09:22:00Z</time>
      </trkpt>
      <trkpt lat="42.89323" lon="0.13304">
        <ele>2120.45</ele>
        <time>2019-03-31T09:22:32Z</time>
      </trkpt>
      <trkpt lat="42.89306" lon="0.13293">
        <ele>2130.3</ele>
        <time>2019-03-31T09:25:03Z</time>
      </trkpt>
      <trkpt lat="42.89292" lon="0.13309">
        <ele>2133.32</ele>
        <time>2019-03-31T09:25:39Z</time>
      </trkpt>
      <trkpt lat="42.89283" lon="0.13331">
        <ele>2138.34</ele>
        <time>2019-03-31T09:26:12Z</time>
      </trkpt>
      <trkpt lat="42.89265" lon="0.13325">
        <ele>2139.03</ele>
        <time>2019-03-31T09:26:51Z</time>
      </trkpt>
      <trkpt lat="42.89247" lon="0.13324">
        <ele>2139.78</ele>
        <time>2019-03-31T09:27:29Z</time>
      </trkpt>
      <trkpt lat="42.89228" lon="0.13316">
        <ele>2142.12</ele>
        <time>2019-03-31T09:27:55Z</time>
      </trkpt>
      <trkpt lat="42.8921" lon="0.13316">
        <ele>2146</ele>
        <time>2019-03-31T09:28:30Z</time>
      </trkpt>
      <trkpt lat="42.89192" lon="0.13311">
        <ele>2151.19</ele>
        <time>2019-03-31T09:29:22Z</time>
      </trkpt>
      <trkpt lat="42.89177" lon="0.13297">
        <ele>2155.57</ele>
        <time>2019-03-31T09:29:43Z</time>
      </trkpt>
      <trkpt lat="42.89167" lon="0.13276">
        <ele>2160.38</ele>
        <time>2019-03-31T09:30:17Z</time>
      </trkpt>
      <trkpt lat="42.8915" lon="0.13286">
        <ele>2163</ele>
        <time>2019-03-31T09:30:43Z</time>
      </trkpt>
      <trkpt lat="42.89132" lon="0.13289">
        <ele>2164.81</ele>
        <time>2019-03-31T09:31:17Z</time>
      </trkpt>
      <trkpt lat="42.89124" lon="0.13312">
        <ele>2163.71</ele>
        <time>2019-03-31T09:32:11Z</time>
      </trkpt>
      <trkpt lat="42.89106" lon="0.13311">
        <ele>2165.99</ele>
        <time>2019-03-31T09:33:13Z</time>
      </trkpt>
      <trkpt lat="42.89092" lon="0.13292">
        <ele>2168.76</ele>
        <time>2019-03-31T09:33:51Z</time>
      </trkpt>
      <trkpt lat="42.89075" lon="0.13302">
        <ele>2189.2</ele>
        <time>2019-03-31T09:35:21Z</time>
      </trkpt>
      <trkpt lat="42.89068" lon="0.13325">
        <ele>2191.42</ele>
        <time>2019-03-31T09:35:53Z</time>
      </trkpt>
      <trkpt lat="42.8905" lon="0.13321">
        <ele>2195.94</ele>
        <time>2019-03-31T09:37:45Z</time>
      </trkpt>
      <trkpt lat="42.89036" lon="0.13303">
        <ele>2204.18</ele>
        <time>2019-03-31T09:38:22Z</time>
      </trkpt>
      <trkpt lat="42.89033" lon="0.13278">
        <ele>2213.33</ele>
        <time>2019-03-31T09:38:59Z</time>
      </trkpt>
      <trkpt lat="42.89035" lon="0.13254">
        <ele>2219.77</ele>
        <time>2019-03-31T09:39:43Z</time>
      </trkpt>
      <trkpt lat="42.89038" lon="0.13229">
        <ele>2223.9</ele>
        <time>2019-03-31T09:40:24Z</time>
      </trkpt>
      <trkpt lat="42.89021" lon="0.13237">
        <ele>2224.06</ele>
        <time>2019-03-31T09:40:55Z</time>
      </trkpt>
      <trkpt lat="42.89005" lon="0.13252">
        <ele>2224.21</ele>
        <time>2019-03-31T09:41:22Z</time>
      </trkpt>
      <trkpt lat="42.88987" lon="0.13253">
        <ele>2228.56</ele>
        <time>2019-03-31T09:42:12Z</time>
      </trkpt>
      <trkpt lat="42.88977" lon="0.13233">
        <ele>2241.3</ele>
        <time>2019-03-31T09:44:26Z</time>
      </trkpt>
      <trkpt lat="42.88964" lon="0.13216">
        <ele>2247.68</ele>
        <time>2019-03-31T09:45:35Z</time>
      </trkpt>
      <trkpt lat="42.88951" lon="0.13197">
        <ele>2252.57</ele>
        <time>2019-03-31T09:46:29Z</time>
      </trkpt>
      <trkpt lat="42.88936" lon="0.1321">
        <ele>2260.65</ele>
        <time>2019-03-31T09:47:39Z</time>
      </trkpt>
      <trkpt lat="42.88924" lon="0.13229">
        <ele>2262.94</ele>
        <time>2019-03-31T09:48:11Z</time>
      </trkpt>
      <trkpt lat="42.88917" lon="0.13252">
        <ele>2265.14</ele>
        <time>2019-03-31T09:48:43Z</time>
      </trkpt>
      <trkpt lat="42.8891" lon="0.13275">
        <ele>2265.46</ele>
        <time>2019-03-31T09:49:17Z</time>
      </trkpt>
      <trkpt lat="42.88901" lon="0.13297">
        <ele>2262.42</ele>
        <time>2019-03-31T09:50:37Z</time>
      </trkpt>
      <trkpt lat="42.88888" lon="0.1328">
        <ele>2268.38</ele>
        <time>2019-03-31T09:51:06Z</time>
      </trkpt>
      <trkpt lat="42.88881" lon="0.13257">
        <ele>2277.02</ele>
        <time>2019-03-31T09:51:51Z</time>
      </trkpt>
      <trkpt lat="42.88871" lon="0.13235">
        <ele>2285.62</ele>
        <time>2019-03-31T09:52:39Z</time>
      </trkpt>
      <trkpt lat="42.88853" lon="0.13237">
        <ele>2290.97</ele>
        <time>2019-03-31T09:53:49Z</time>
      </trkpt>
      <trkpt lat="42.88842" lon="0.13218">
        <ele>2298.9</ele>
        <time>2019-03-31T09:57:05Z</time>
      </trkpt>
      <trkpt lat="42.88838" lon="0.13193">
        <ele>2303.67</ele>
        <time>2019-03-31T09:57:38Z</time>
      </trkpt>
      <trkpt lat="42.88838" lon="0.13168">
        <ele>2310.39</ele>
        <time>2019-03-31T09:59:16Z</time>
      </trkpt>
      <trkpt lat="42.88827" lon="0.13148">
        <ele>2316.08</ele>
        <time>2019-03-31T10:00:01Z</time>
      </trkpt>
      <trkpt lat="42.88819" lon="0.13125">
        <ele>2324.25</ele>
        <time>2019-03-31T10:00:38Z</time>
      </trkpt>
      <trkpt lat="42.88809" lon="0.13105">
        <ele>2329.11</ele>
        <time>2019-03-31T10:01:05Z</time>
      </trkpt>
      <trkpt lat="42.88814" lon="0.13081">
        <ele>2328.23</ele>
        <time>2019-03-31T10:03:25Z</time>
      </trkpt>
      <trkpt lat="42.88822" lon="0.13058">
        <ele>2330.73</ele>
        <time>2019-03-31T10:03:51Z</time>
      </trkpt>
      <trkpt lat="42.88834" lon="0.1304">
        <ele>2336.81</ele>
        <time>2019-03-31T10:04:34Z</time>
      </trkpt>
      <trkpt lat="42.88845" lon="0.1306">
        <ele>2345.26</ele>
        <time>2019-03-31T10:06:01Z</time>
      </trkpt>
      <trkpt lat="42.88862" lon="0.13055">
        <ele>2352.41</ele>
        <time>2019-03-31T10:06:53Z</time>
      </trkpt>
      <trkpt lat="42.8886" lon="0.13026">
        <ele>2345.81</ele>
        <time>2019-03-31T10:18:48Z</time>
      </trkpt>
      <trkpt lat="42.88866" lon="0.13002">
        <ele>2340.01</ele>
        <time>2019-03-31T10:18:51Z</time>
      </trkpt>
      <trkpt lat="42.88883" lon="0.12991">
        <ele>2331.03</ele>
        <time>2019-03-31T10:18:56Z</time>
      </trkpt>
      <trkpt lat="42.88899" lon="0.1298">
        <ele>2325.89</ele>
        <time>2019-03-31T10:19:20Z</time>
      </trkpt>
      <trkpt lat="42.88914" lon="0.12963">
        <ele>2319.79</ele>
        <time>2019-03-31T10:19:32Z</time>
      </trkpt>
      <trkpt lat="42.88934" lon="0.12955">
        <ele>2315.82</ele>
        <time>2019-03-31T10:19:37Z</time>
      </trkpt>
      <trkpt lat="42.8895" lon="0.12942">
        <ele>2308.83</ele>
        <time>2019-03-31T10:19:44Z</time>
      </trkpt>
      <trkpt lat="42.88948" lon="0.12968">
        <ele>2303.82</ele>
        <time>2019-03-31T10:20:08Z</time>
      </trkpt>
      <trkpt lat="42.88959" lon="0.1299">
        <ele>2300.96</ele>
        <time>2019-03-31T10:20:15Z</time>
      </trkpt>
      <trkpt lat="42.88975" lon="0.12975">
        <ele>2286.69</ele>
        <time>2019-03-31T10:20:26Z</time>
      </trkpt>
      <trkpt lat="42.88986" lon="0.12998">
        <ele>2266.31</ele>
        <time>2019-03-31T10:20:43Z</time>
      </trkpt>
      <trkpt lat="42.89003" lon="0.13007">
        <ele>2256.89</ele>
        <time>2019-03-31T10:20:50Z</time>
      </trkpt>
      <trkpt lat="42.89012" lon="0.13029">
        <ele>2253.02</ele>
        <time>2019-03-31T10:21:25Z</time>
      </trkpt>
      <trkpt lat="42.8903" lon="0.13035">
        <ele>2229.95</ele>
        <time>2019-03-31T10:21:43Z</time>
      </trkpt>
      <trkpt lat="42.89048" lon="0.13032">
        <ele>2225.39</ele>
        <time>2019-03-31T10:21:47Z</time>
      </trkpt>
      <trkpt lat="42.89067" lon="0.13043">
        <ele>2220.95</ele>
        <time>2019-03-31T10:21:51Z</time>
      </trkpt>
      <trkpt lat="42.89081" lon="0.13059">
        <ele>2216.05</ele>
        <time>2019-03-31T10:21:57Z</time>
      </trkpt>
      <trkpt lat="42.89079" lon="0.13084">
        <ele>2212.03</ele>
        <time>2019-03-31T10:22:19Z</time>
      </trkpt>
      <trkpt lat="42.89099" lon="0.13089">
        <ele>2205.75</ele>
        <time>2019-03-31T10:22:27Z</time>
      </trkpt>
      <trkpt lat="42.89119" lon="0.13081">
        <ele>2204.31</ele>
        <time>2019-03-31T10:22:48Z</time>
      </trkpt>
      <trkpt lat="42.89127" lon="0.13105">
        <ele>2195.64</ele>
        <time>2019-03-31T10:22:57Z</time>
      </trkpt>
      <trkpt lat="42.8913" lon="0.13132">
        <ele>2184.91</ele>
        <time>2019-03-31T10:23:04Z</time>
      </trkpt>
      <trkpt lat="42.89134" lon="0.1316">
        <ele>2181.22</ele>
        <time>2019-03-31T10:23:09Z</time>
      </trkpt>
      <trkpt lat="42.89139" lon="0.13187">
        <ele>2178.71</ele>
        <time>2019-03-31T10:23:17Z</time>
      </trkpt>
      <trkpt lat="42.89153" lon="0.13209">
        <ele>2174.35</ele>
        <time>2019-03-31T10:23:23Z</time>
      </trkpt>
      <trkpt lat="42.89172" lon="0.13219">
        <ele>2169.58</ele>
        <time>2019-03-31T10:23:27Z</time>
      </trkpt>
      <trkpt lat="42.89193" lon="0.13229">
        <ele>2163.25</ele>
        <time>2019-03-31T10:23:31Z</time>
      </trkpt>
      <trkpt lat="42.89213" lon="0.13221">
        <ele>2159.07</ele>
        <time>2019-03-31T10:23:34Z</time>
      </trkpt>
      <trkpt lat="42.89232" lon="0.13218">
        <ele>2156.88</ele>
        <time>2019-03-31T10:23:37Z</time>
      </trkpt>
      <trkpt lat="42.89253" lon="0.13214">
        <ele>2151.11</ele>
        <time>2019-03-31T10:23:42Z</time>
      </trkpt>
      <trkpt lat="42.8927" lon="0.13228">
        <ele>2143.47</ele>
        <time>2019-03-31T10:23:48Z</time>
      </trkpt>
      <trkpt lat="42.89289" lon="0.13233">
        <ele>2138.43</ele>
        <time>2019-03-31T10:23:52Z</time>
      </trkpt>
      <trkpt lat="42.89307" lon="0.13223">
        <ele>2134.27</ele>
        <time>2019-03-31T10:23:56Z</time>
      </trkpt>
      <trkpt lat="42.89322" lon="0.13209">
        <ele>2130.29</ele>
        <time>2019-03-31T10:24:01Z</time>
      </trkpt>
      <trkpt lat="42.89338" lon="0.13193">
        <ele>2129.77</ele>
        <time>2019-03-31T10:24:10Z</time>
      </trkpt>
      <trkpt lat="42.89357" lon="0.1318">
        <ele>2129.36</ele>
        <time>2019-03-31T10:24:35Z</time>
      </trkpt>
      <trkpt lat="42.89375" lon="0.13168">
        <ele>2128.62</ele>
        <time>2019-03-31T10:24:39Z</time>
      </trkpt>
      <trkpt lat="42.89394" lon="0.13155">
        <ele>2128.12</ele>
        <time>2019-03-31T10:24:43Z</time>
      </trkpt>
      <trkpt lat="42.89413" lon="0.13149">
        <ele>2127.2</ele>
        <time>2019-03-31T10:24:46Z</time>
      </trkpt>
      <trkpt lat="42.89431" lon="0.13147">
        <ele>2125.25</ele>
        <time>2019-03-31T10:24:50Z</time>
      </trkpt>
      <trkpt lat="42.8945" lon="0.13149">
        <ele>2121.23</ele>
        <time>2019-03-31T10:25:06Z</time>
      </trkpt>
      <trkpt lat="42.89466" lon="0.1316">
        <ele>2118.93</ele>
        <time>2019-03-31T10:25:13Z</time>
      </trkpt>
      <trkpt lat="42.89485" lon="0.13169">
        <ele>2117.45</ele>
        <time>2019-03-31T10:25:38Z</time>
      </trkpt>
      <trkpt lat="42.89493" lon="0.13192">
        <ele>2114.48</ele>
        <time>2019-03-31T10:25:54Z</time>
      </trkpt>
      <trkpt lat="42.89495" lon="0.1322">
        <ele>2108.1</ele>
        <time>2019-03-31T10:25:59Z</time>
      </trkpt>
      <trkpt lat="42.89496" lon="0.13245">
        <ele>2101.53</ele>
        <time>2019-03-31T10:26:03Z</time>
      </trkpt>
      <trkpt lat="42.89514" lon="0.13247">
        <ele>2091.02</ele>
        <time>2019-03-31T10:26:08Z</time>
      </trkpt>
      <trkpt lat="42.89535" lon="0.13242">
        <ele>2082.01</ele>
        <time>2019-03-31T10:26:13Z</time>
      </trkpt>
      <trkpt lat="42.89554" lon="0.13236">
        <ele>2074.12</ele>
        <time>2019-03-31T10:26:18Z</time>
      </trkpt>
      <trkpt lat="42.89571" lon="0.13225">
        <ele>2070.92</ele>
        <time>2019-03-31T10:26:29Z</time>
      </trkpt>
      <trkpt lat="42.89593" lon="0.1321">
        <ele>2069.52</ele>
        <time>2019-03-31T10:26:33Z</time>
      </trkpt>
      <trkpt lat="42.89609" lon="0.132">
        <ele>2068.79</ele>
        <time>2019-03-31T10:26:37Z</time>
      </trkpt>
      <trkpt lat="42.89627" lon="0.13189">
        <ele>2069.09</ele>
        <time>2019-03-31T10:26:43Z</time>
      </trkpt>
      <trkpt lat="42.89639" lon="0.13208">
        <ele>2064.85</ele>
        <time>2019-03-31T10:27:29Z</time>
      </trkpt>
      <trkpt lat="42.89653" lon="0.13227">
        <ele>2053.85</ele>
        <time>2019-03-31T10:27:35Z</time>
      </trkpt>
      <trkpt lat="42.89672" lon="0.13228">
        <ele>2040.3</ele>
        <time>2019-03-31T10:27:42Z</time>
      </trkpt>
      <trkpt lat="42.89692" lon="0.13238">
        <ele>2027.01</ele>
        <time>2019-03-31T10:27:49Z</time>
      </trkpt>
      <trkpt lat="42.89708" lon="0.13257">
        <ele>2013.04</ele>
        <time>2019-03-31T10:27:56Z</time>
      </trkpt>
      <trkpt lat="42.89718" lon="0.13278">
        <ele>2003.38</ele>
        <time>2019-03-31T10:28:02Z</time>
      </trkpt>
      <trkpt lat="42.89739" lon="0.1327">
        <ele>2001.07</ele>
        <time>2019-03-31T10:28:37Z</time>
      </trkpt>
      <trkpt lat="42.89757" lon="0.13271">
        <ele>1998.04</ele>
        <time>2019-03-31T10:28:40Z</time>
      </trkpt>
      <trkpt lat="42.89779" lon="0.13278">
        <ele>1992.64</ele>
        <time>2019-03-31T10:28:43Z</time>
      </trkpt>
      <trkpt lat="42.89796" lon="0.13262">
        <ele>1984.6</ele>
        <time>2019-03-31T10:28:46Z</time>
      </trkpt>
      <trkpt lat="42.89811" lon="0.13246">
        <ele>1977.66</ele>
        <time>2019-03-31T10:28:50Z</time>
      </trkpt>
      <trkpt lat="42.89825" lon="0.13228">
        <ele>1970.91</ele>
        <time>2019-03-31T10:29:15Z</time>
      </trkpt>
      <trkpt lat="42.89837" lon="0.13208">
        <ele>1969.11</ele>
        <time>2019-03-31T10:29:19Z</time>
      </trkpt>
      <trkpt lat="42.89851" lon="0.13186">
        <ele>1964.36</ele>
        <time>2019-03-31T10:29:23Z</time>
      </trkpt>
      <trkpt lat="42.89866" lon="0.13204">
        <ele>1954.36</ele>
        <time>2019-03-31T10:29:29Z</time>
      </trkpt>
      <trkpt lat="42.89879" lon="0.13224">
        <ele>1946.43</ele>
        <time>2019-03-31T10:29:34Z</time>
      </trkpt>
      <trkpt lat="42.89893" lon="0.1324">
        <ele>1937.53</ele>
        <time>2019-03-31T10:29:38Z</time>
      </trkpt>
      <trkpt lat="42.89907" lon="0.13262">
        <ele>1930.9</ele>
        <time>2019-03-31T10:29:42Z</time>
      </trkpt>
      <trkpt lat="42.89925" lon="0.13267">
        <ele>1915.2</ele>
        <time>2019-03-31T10:29:49Z</time>
      </trkpt>
      <trkpt lat="42.89939" lon="0.13249">
        <ele>1914.36</ele>
        <time>2019-03-31T10:30:29Z</time>
      </trkpt>
      <trkpt lat="42.89954" lon="0.1323">
        <ele>1908.61</ele>
        <time>2019-03-31T10:30:33Z</time>
      </trkpt>
      <trkpt lat="42.89969" lon="0.13245">
        <ele>1901.06</ele>
        <time>2019-03-31T10:30:37Z</time>
      </trkpt>
      <trkpt lat="42.89988" lon="0.13233">
        <ele>1888.68</ele>
        <time>2019-03-31T10:30:44Z</time>
      </trkpt>
      <trkpt lat="42.90008" lon="0.13237">
        <ele>1882.43</ele>
        <time>2019-03-31T10:30:48Z</time>
      </trkpt>
      <trkpt lat="42.90029" lon="0.13234">
        <ele>1872.93</ele>
        <time>2019-03-31T10:30:54Z</time>
      </trkpt>
      <trkpt lat="42.90048" lon="0.13234">
        <ele>1865.19</ele>
        <time>2019-03-31T10:31:31Z</time>
      </trkpt>
      <trkpt lat="42.90067" lon="0.13229">
        <ele>1858.59</ele>
        <time>2019-03-31T10:31:38Z</time>
      </trkpt>
      <trkpt lat="42.90086" lon="0.1323">
        <ele>1845.49</ele>
        <time>2019-03-31T10:31:44Z</time>
      </trkpt>
      <trkpt lat="42.90107" lon="0.13233">
        <ele>1829.1</ele>
        <time>2019-03-31T10:31:50Z</time>
      </trkpt>
      <trkpt lat="42.90126" lon="0.13236">
        <ele>1819.66</ele>
        <time>2019-03-31T10:31:54Z</time>
      </trkpt>
      <trkpt lat="42.90146" lon="0.13228">
        <ele>1802.75</ele>
        <time>2019-03-31T10:31:58Z</time>
      </trkpt>
      <trkpt lat="42.90164" lon="0.13211">
        <ele>1793.29</ele>
        <time>2019-03-31T10:32:01Z</time>
      </trkpt>
      <trkpt lat="42.90182" lon="0.13222">
        <ele>1785.57</ele>
        <time>2019-03-31T10:32:59Z</time>
      </trkpt>
      <trkpt lat="42.90204" lon="0.13231">
        <ele>1781.58</ele>
        <time>2019-03-31T10:33:04Z</time>
      </trkpt>
      <trkpt lat="42.90224" lon="0.13234">
        <ele>1779.27</ele>
        <time>2019-03-31T10:33:07Z</time>
      </trkpt>
      <trkpt lat="42.90247" lon="0.1323">
        <ele>1775.48</ele>
        <time>2019-03-31T10:33:11Z</time>
      </trkpt>
      <trkpt lat="42.90271" lon="0.13223">
        <ele>1773.32</ele>
        <time>2019-03-31T10:33:15Z</time>
      </trkpt>
      <trkpt lat="42.90287" lon="0.13203">
        <ele>1769.7</ele>
        <time>2019-03-31T10:33:19Z</time>
      </trkpt>
      <trkpt lat="42.90302" lon="0.13179">
        <ele>1764.38</ele>
        <time>2019-03-31T10:33:23Z</time>
      </trkpt>
      <trkpt lat="42.90321" lon="0.1316">
        <ele>1759.93</ele>
        <time>2019-03-31T10:33:27Z</time>
      </trkpt>
      <trkpt lat="42.90335" lon="0.13135">
        <ele>1755.25</ele>
        <time>2019-03-31T10:33:31Z</time>
      </trkpt>
      <trkpt lat="42.90336" lon="0.13105">
        <ele>1751.48</ele>
        <time>2019-03-31T10:33:35Z</time>
      </trkpt>
      <trkpt lat="42.90339" lon="0.13081">
        <ele>1747.6</ele>
        <time>2019-03-31T10:33:40Z</time>
      </trkpt>
      <trkpt lat="42.90357" lon="0.13067">
        <ele>1743.15</ele>
        <time>2019-03-31T10:33:44Z</time>
      </trkpt>
      <trkpt lat="42.90377" lon="0.13057">
        <ele>1738.72</ele>
        <time>2019-03-31T10:33:47Z</time>
      </trkpt>
      <trkpt lat="42.90388" lon="0.13036">
        <ele>1731.79</ele>
        <time>2019-03-31T10:33:49Z</time>
      </trkpt>
      <trkpt lat="42.90413" lon="0.13034">
        <ele>1725.46</ele>
        <time>2019-03-31T10:33:52Z</time>
      </trkpt>
      <trkpt lat="42.90433" lon="0.13029">
        <ele>1719.5</ele>
        <time>2019-03-31T10:33:55Z</time>
      </trkpt>
      <trkpt lat="42.9045" lon="0.13014">
        <ele>1713.61</ele>
        <time>2019-03-31T10:33:58Z</time>
      </trkpt>
      <trkpt lat="42.90474" lon="0.13012">
        <ele>1708.42</ele>
        <time>2019-03-31T10:34:01Z</time>
      </trkpt>
      <trkpt lat="42.90496" lon="0.13023">
        <ele>1704.8</ele>
        <time>2019-03-31T10:34:03Z</time>
      </trkpt>
      <trkpt lat="42.90517" lon="0.13042">
        <ele>1701.4</ele>
        <time>2019-03-31T10:34:06Z</time>
      </trkpt>
      <trkpt lat="42.90535" lon="0.13057">
        <ele>1698.51</ele>
        <time>2019-03-31T10:34:09Z</time>
      </trkpt>
      <trkpt lat="42.90548" lon="0.13077">
        <ele>1695.65</ele>
        <time>2019-03-31T10:34:12Z</time>
      </trkpt>
      <trkpt lat="42.90556" lon="0.13105">
        <ele>1691.5</ele>
        <time>2019-03-31T10:34:16Z</time>
      </trkpt>
      <trkpt lat="42.90564" lon="0.13132">
        <ele>1689.57</ele>
        <time>2019-03-31T10:34:20Z</time>
      </trkpt>
      <trkpt lat="42.90577" lon="0.13153">
        <ele>1687.41</ele>
        <time>2019-03-31T10:34:25Z</time>
      </trkpt>
      <trkpt lat="42.90596" lon="0.1316">
        <ele>1688.16</ele>
        <time>2019-03-31T10:34:54Z</time>
      </trkpt>
      <trkpt lat="42.90615" lon="0.13155">
        <ele>1686.56</ele>
        <time>2019-03-31T10:35:01Z</time>
      </trkpt>
      <trkpt lat="42.90634" lon="0.13147">
        <ele>1684.52</ele>
        <time>2019-03-31T10:35:07Z</time>
      </trkpt>
      <trkpt lat="42.90647" lon="0.13129">
        <ele>1681.34</ele>
        <time>2019-03-31T10:35:13Z</time>
      </trkpt>
      <trkpt lat="42.90659" lon="0.13105">
        <ele>1682.39</ele>
        <time>2019-03-31T10:35:20Z</time>
      </trkpt>
      <trkpt lat="42.90665" lon="0.13082">
        <ele>1684.11</ele>
        <time>2019-03-31T10:35:26Z</time>
      </trkpt>
      <trkpt lat="42.90666" lon="0.13057">
        <ele>1682</ele>
        <time>2019-03-31T10:35:36Z</time>
      </trkpt>
      <trkpt lat="42.90674" lon="0.13033">
        <ele>1680.81</ele>
        <time>2019-03-31T10:35:46Z</time>
      </trkpt>
      <trkpt lat="42.90681" lon="0.13006">
        <ele>1680.47</ele>
        <time>2019-03-31T10:35:54Z</time>
      </trkpt>
      <trkpt lat="42.90688" lon="0.1298">
        <ele>1677.89</ele>
        <time>2019-03-31T10:36:00Z</time>
      </trkpt>
      <trkpt lat="42.90691" lon="0.12952">
        <ele>1676.07</ele>
        <time>2019-03-31T10:36:05Z</time>
      </trkpt>
      <trkpt lat="42.90691" lon="0.12927">
        <ele>1673.94</ele>
        <time>2019-03-31T10:36:09Z</time>
      </trkpt>
      <trkpt lat="42.90693" lon="0.12901">
        <ele>1671.68</ele>
        <time>2019-03-31T10:36:13Z</time>
      </trkpt>
      <trkpt lat="42.90694" lon="0.1287">
        <ele>1671.05</ele>
        <time>2019-03-31T10:36:17Z</time>
      </trkpt>
      <trkpt lat="42.90695" lon="0.12844">
        <ele>1669.96</ele>
        <time>2019-03-31T10:36:20Z</time>
      </trkpt>
      <trkpt lat="42.90697" lon="0.12819">
        <ele>1668.21</ele>
        <time>2019-03-31T10:36:23Z</time>
      </trkpt>
      <trkpt lat="42.90698" lon="0.12787">
        <ele>1666.3</ele>
        <time>2019-03-31T10:36:27Z</time>
      </trkpt>
      <trkpt lat="42.907" lon="0.12758">
        <ele>1663.8</ele>
        <time>2019-03-31T10:36:31Z</time>
      </trkpt>
      <trkpt lat="42.90704" lon="0.12731">
        <ele>1662.65</ele>
        <time>2019-03-31T10:36:35Z</time>
      </trkpt>
      <trkpt lat="42.90705" lon="0.12702">
        <ele>1660.41</ele>
        <time>2019-03-31T10:36:39Z</time>
      </trkpt>
      <trkpt lat="42.90707" lon="0.12674">
        <ele>1657.62</ele>
        <time>2019-03-31T10:36:43Z</time>
      </trkpt>
      <trkpt lat="42.90709" lon="0.12647">
        <ele>1656.19</ele>
        <time>2019-03-31T10:36:47Z</time>
      </trkpt>
      <trkpt lat="42.90711" lon="0.12621">
        <ele>1653.58</ele>
        <time>2019-03-31T10:36:51Z</time>
      </trkpt>
      <trkpt lat="42.90712" lon="0.12595">
        <ele>1651.87</ele>
        <time>2019-03-31T10:36:55Z</time>
      </trkpt>
      <trkpt lat="42.9071" lon="0.12568">
        <ele>1649.49</ele>
        <time>2019-03-31T10:36:59Z</time>
      </trkpt>
      <trkpt lat="42.90709" lon="0.12544">
        <ele>1647.77</ele>
        <time>2019-03-31T10:37:03Z</time>
      </trkpt>
      <trkpt lat="42.90707" lon="0.12518">
        <ele>1646.4</ele>
        <time>2019-03-31T10:37:07Z</time>
      </trkpt>
      <trkpt lat="42.90706" lon="0.12492">
        <ele>1644.6</ele>
        <time>2019-03-31T10:37:11Z</time>
      </trkpt>
      <trkpt lat="42.90705" lon="0.12462">
        <ele>1643.52</ele>
        <time>2019-03-31T10:37:15Z</time>
      </trkpt>
      <trkpt lat="42.90705" lon="0.12431">
        <ele>1644.78</ele>
        <time>2019-03-31T10:37:19Z</time>
      </trkpt>
      <trkpt lat="42.90706" lon="0.12405">
        <ele>1644.71</ele>
        <time>2019-03-31T10:37:22Z</time>
      </trkpt>
      <trkpt lat="42.90708" lon="0.12378">
        <ele>1643.27</ele>
        <time>2019-03-31T10:37:25Z</time>
      </trkpt>
      <trkpt lat="42.9071" lon="0.12351">
        <ele>1642.11</ele>
        <time>2019-03-31T10:37:28Z</time>
      </trkpt>
      <trkpt lat="42.90713" lon="0.12325">
        <ele>1642.09</ele>
        <time>2019-03-31T10:37:31Z</time>
      </trkpt>
      <trkpt lat="42.90714" lon="0.123">
        <ele>1640.99</ele>
        <time>2019-03-31T10:37:34Z</time>
      </trkpt>
      <trkpt lat="42.90715" lon="0.1227">
        <ele>1638.64</ele>
        <time>2019-03-31T10:37:38Z</time>
      </trkpt>
      <trkpt lat="42.90714" lon="0.12241">
        <ele>1636.49</ele>
        <time>2019-03-31T10:37:42Z</time>
      </trkpt>
      <trkpt lat="42.90712" lon="0.12214">
        <ele>1634.67</ele>
        <time>2019-03-31T10:37:46Z</time>
      </trkpt>
      <trkpt lat="42.90711" lon="0.12186">
        <ele>1632.58</ele>
        <time>2019-03-31T10:37:50Z</time>
      </trkpt>
      <trkpt lat="42.9071" lon="0.12156">
        <ele>1626.8</ele>
        <time>2019-03-31T10:37:54Z</time>
      </trkpt>
      <trkpt lat="42.9071" lon="0.12124">
        <ele>1622.6</ele>
        <time>2019-03-31T10:37:58Z</time>
      </trkpt>
      <trkpt lat="42.90709" lon="0.12099">
        <ele>1622.07</ele>
        <time>2019-03-31T10:38:01Z</time>
      </trkpt>
      <trkpt lat="42.90711" lon="0.12071">
        <ele>1620.03</ele>
        <time>2019-03-31T10:38:04Z</time>
      </trkpt>
      <trkpt lat="42.90713" lon="0.12042">
        <ele>1617.35</ele>
        <time>2019-03-31T10:38:07Z</time>
      </trkpt>
      <trkpt lat="42.90716" lon="0.12011">
        <ele>1615.55</ele>
        <time>2019-03-31T10:38:10Z</time>
      </trkpt>
      <trkpt lat="42.90719" lon="0.1198">
        <ele>1613.63</ele>
        <time>2019-03-31T10:38:13Z</time>
      </trkpt>
      <trkpt lat="42.90722" lon="0.11949">
        <ele>1612.13</ele>
        <time>2019-03-31T10:38:16Z</time>
      </trkpt>
      <trkpt lat="42.90724" lon="0.11919">
        <ele>1609.66</ele>
        <time>2019-03-31T10:38:19Z</time>
      </trkpt>
      <trkpt lat="42.90726" lon="0.1189">
        <ele>1605.76</ele>
        <time>2019-03-31T10:38:22Z</time>
      </trkpt>
      <trkpt lat="42.9073" lon="0.11861">
        <ele>1603.22</ele>
        <time>2019-03-31T10:38:25Z</time>
      </trkpt>
      <trkpt lat="42.90734" lon="0.11833">
        <ele>1601.17</ele>
        <time>2019-03-31T10:38:28Z</time>
      </trkpt>
      <trkpt lat="42.90737" lon="0.11806">
        <ele>1599.15</ele>
        <time>2019-03-31T10:38:31Z</time>
      </trkpt>
      <trkpt lat="42.90741" lon="0.1178">
        <ele>1598.42</ele>
        <time>2019-03-31T10:38:34Z</time>
      </trkpt>
      <trkpt lat="42.90746" lon="0.11754">
        <ele>1597</ele>
        <time>2019-03-31T10:38:37Z</time>
      </trkpt>
      <trkpt lat="42.90751" lon="0.1173">
        <ele>1594.41</ele>
        <time>2019-03-31T10:38:40Z</time>
      </trkpt>
      <trkpt lat="42.90757" lon="0.11703">
        <ele>1590.82</ele>
        <time>2019-03-31T10:38:44Z</time>
      </trkpt>
      <trkpt lat="42.90766" lon="0.11678">
        <ele>1589.57</ele>
        <time>2019-03-31T10:38:48Z</time>
      </trkpt>
      <trkpt lat="42.90775" lon="0.11655">
        <ele>1588.24</ele>
        <time>2019-03-31T10:38:52Z</time>
      </trkpt>
      <trkpt lat="42.90784" lon="0.11633">
        <ele>1585.2</ele>
        <time>2019-03-31T10:38:56Z</time>
      </trkpt>
      <trkpt lat="42.90794" lon="0.11609">
        <ele>1583.28</ele>
        <time>2019-03-31T10:39:00Z</time>
      </trkpt>
      <trkpt lat="42.90804" lon="0.11587">
        <ele>1581.83</ele>
        <time>2019-03-31T10:39:04Z</time>
      </trkpt>
      <trkpt lat="42.90803" lon="0.11559">
        <ele>1579.32</ele>
        <time>2019-03-31T10:39:09Z</time>
      </trkpt>
      <trkpt lat="42.90786" lon="0.11571">
        <ele>1577.02</ele>
        <time>2019-03-31T10:39:15Z</time>
      </trkpt>
      <trkpt lat="42.9077" lon="0.11588">
        <ele>1582.07</ele>
        <time>2019-03-31T10:39:22Z</time>
      </trkpt>
      <trkpt lat="42.90756" lon="0.11604">
        <ele>1579.33</ele>
        <time>2019-03-31T10:39:29Z</time>
      </trkpt>
      <trkpt lat="42.90739" lon="0.11621">
        <ele>1578.83</ele>
        <time>2019-03-31T10:39:36Z</time>
      </trkpt>
      <trkpt lat="42.90721" lon="0.11616">
        <ele>1577.53</ele>
        <time>2019-03-31T10:39:44Z</time>
      </trkpt>
      <trkpt lat="42.90714" lon="0.1159">
        <ele>1573.97</ele>
        <time>2019-03-31T10:39:49Z</time>
      </trkpt>
      <trkpt lat="42.90718" lon="0.11559">
        <ele>1569.72</ele>
        <time>2019-03-31T10:39:53Z</time>
      </trkpt>
      <trkpt lat="42.90721" lon="0.11533">
        <ele>1565.8</ele>
        <time>2019-03-31T10:39:56Z</time>
      </trkpt>
      <trkpt lat="42.90723" lon="0.11508">
        <ele>1562.33</ele>
        <time>2019-03-31T10:39:59Z</time>
      </trkpt>
      <trkpt lat="42.90725" lon="0.1148">
        <ele>1559.39</ele>
        <time>2019-03-31T10:40:03Z</time>
      </trkpt>
      <trkpt lat="42.90728" lon="0.11449">
        <ele>1554.33</ele>
        <time>2019-03-31T10:45:59Z</time>
      </trkpt>
    </trkseg>
  </trk>
</gpx>